sensor_id;sensor_type;location;lat;lon;timestamp;temperature;humidity
3067;DHT22;1544;48.834;9.194;2023-02-04T00:02:31;8.60;84.60
3067;DHT22;1544;48.834;9.194;2023-02-04T00:05:07;8.60;84.80
3067;DHT22;1544;48.834;9.194;2023-02-04T00:07:42;8.60;85.70
3067;DHT22;1544;48.834;9.194;2023-02-04T00:10:17;8.50;85.80
3067;DHT22;1544;48.834;9.194;2023-02-04T00:12:52;8.50;86.00
3067;DHT22;1544;48.834;9.194;2023-02-04T00:15:27;8.50;86.30
3067;DHT22;1544;48.834;9.194;2023-02-04T00:18:02;8.50;86.80
3067;DHT22;1544;48.834;9.194;2023-02-04T00:20:39;8.50;86.70
3067;DHT22;1544;48.834;9.194;2023-02-04T00:23:14;8.40;86.20
3067;DHT22;1544;48.834;9.194;2023-02-04T00:25:48;8.50;86.20
3067;DHT22;1544;48.834;9.194;2023-02-04T00:28:23;8.40;85.70
3067;DHT22;1544;48.834;9.194;2023-02-04T00:30:58;8.40;85.60
3067;DHT22;1544;48.834;9.194;2023-02-04T00:33:33;8.40;85.20
3067;DHT22;1544;48.834;9.194;2023-02-04T00:36:09;8.40;85.00
3067;DHT22;1544;48.834;9.194;2023-02-04T00:38:44;8.40;85.40
3067;DHT22;1544;48.834;9.194;2023-02-04T00:41:20;8.40;85.40
3067;DHT22;1544;48.834;9.194;2023-02-04T00:43:55;8.40;83.30
3067;DHT22;1544;48.834;9.194;2023-02-04T00:46:31;8.40;81.80
3067;DHT22;1544;48.834;9.194;2023-02-04T00:49:06;8.40;81.90
3067;DHT22;1544;48.834;9.194;2023-02-04T00:51:44;8.40;81.40
3067;DHT22;1544;48.834;9.194;2023-02-04T00:54:20;8.40;81.70
3067;DHT22;1544;48.834;9.194;2023-02-04T00:56:55;8.40;81.90
3067;DHT22;1544;48.834;9.194;2023-02-04T00:59:30;8.50;81.70
3067;DHT22;1544;48.834;9.194;2023-02-04T01:02:05;8.40;82.00
3067;DHT22;1544;48.834;9.194;2023-02-04T01:04:39;8.40;82.60
3067;DHT22;1544;48.834;9.194;2023-02-04T01:07:14;8.30;82.90
3067;DHT22;1544;48.834;9.194;2023-02-04T01:09:49;8.30;83.70
3067;DHT22;1544;48.834;9.194;2023-02-04T01:12:24;8.30;84.60
3067;DHT22;1544;48.834;9.194;2023-02-04T01:15:01;8.20;85.60
3067;DHT22;1544;48.834;9.194;2023-02-04T01:17:38;8.20;86.10
3067;DHT22;1544;48.834;9.194;2023-02-04T01:20:13;8.20;87.20
3067;DHT22;1544;48.834;9.194;2023-02-04T01:22:48;8.20;87.70
3067;DHT22;1544;48.834;9.194;2023-02-04T01:25:23;8.10;88.20
3067;DHT22;1544;48.834;9.194;2023-02-04T01:27:58;8.10;88.70
3067;DHT22;1544;48.834;9.194;2023-02-04T01:30:33;8.10;89.30
3067;DHT22;1544;48.834;9.194;2023-02-04T01:33:08;8.10;89.80
3067;DHT22;1544;48.834;9.194;2023-02-04T01:35:42;8.00;89.70
3067;DHT22;1544;48.834;9.194;2023-02-04T01:38:17;8.00;90.20
3067;DHT22;1544;48.834;9.194;2023-02-04T01:40:52;8.00;90.30
3067;DHT22;1544;48.834;9.194;2023-02-04T01:43:29;8.00;90.40
3067;DHT22;1544;48.834;9.194;2023-02-04T01:46:05;8.70;90.80
3067;DHT22;1544;48.834;9.194;2023-02-04T01:48:40;8.00;90.60
3067;DHT22;1544;48.834;9.194;2023-02-04T01:51:23;8.00;90.60
3067;DHT22;1544;48.834;9.194;2023-02-04T01:54:01;7.90;90.60
3067;DHT22;1544;48.834;9.194;2023-02-04T01:56:39;7.90;90.50
3067;DHT22;1544;48.834;9.194;2023-02-04T01:59:17;7.90;90.50
3067;DHT22;1544;48.834;9.194;2023-02-04T02:01:53;7.80;90.60
3067;DHT22;1544;48.834;9.194;2023-02-04T02:04:30;7.80;90.60
3067;DHT22;1544;48.834;9.194;2023-02-04T02:07:08;7.90;90.70
3067;DHT22;1544;48.834;9.194;2023-02-04T02:09:45;7.90;90.70
3067;DHT22;1544;48.834;9.194;2023-02-04T02:12:20;7.90;90.80
3067;DHT22;1544;48.834;9.194;2023-02-04T02:14:56;8.00;90.80
3067;DHT22;1544;48.834;9.194;2023-02-04T02:17:32;8.00;90.70
3067;DHT22;1544;48.834;9.194;2023-02-04T02:20:10;8.00;90.50
3067;DHT22;1544;48.834;9.194;2023-02-04T02:25:56;8.00;90.20
3067;DHT22;1544;48.834;9.194;2023-02-04T02:28:31;8.00;90.10
3067;DHT22;1544;48.834;9.194;2023-02-04T02:31:06;8.00;89.90
3067;DHT22;1544;48.834;9.194;2023-02-04T02:33:43;8.10;90.00
3067;DHT22;1544;48.834;9.194;2023-02-04T02:36:18;8.00;89.70
3067;DHT22;1544;48.834;9.194;2023-02-04T02:38:53;8.10;90.10
3067;DHT22;1544;48.834;9.194;2023-02-04T02:41:29;8.10;90.00
3067;DHT22;1544;48.834;9.194;2023-02-04T02:44:05;8.10;89.90
3067;DHT22;1544;48.834;9.194;2023-02-04T02:46:40;8.20;89.70
3067;DHT22;1544;48.834;9.194;2023-02-04T02:49:17;8.10;89.40
3067;DHT22;1544;48.834;9.194;2023-02-04T02:51:54;8.10;88.50
3067;DHT22;1544;48.834;9.194;2023-02-04T02:54:30;8.00;88.10
3067;DHT22;1544;48.834;9.194;2023-02-04T02:57:15;8.00;88.20
3067;DHT22;1544;48.834;9.194;2023-02-04T02:59:53;8.00;87.80
3067;DHT22;1544;48.834;9.194;2023-02-04T03:02:28;8.10;88.40
3067;DHT22;1544;48.834;9.194;2023-02-04T03:05:03;8.00;88.10
3067;DHT22;1544;48.834;9.194;2023-02-04T03:07:38;8.10;88.50
3067;DHT22;1544;48.834;9.194;2023-02-04T03:10:15;8.10;88.60
3067;DHT22;1544;48.834;9.194;2023-02-04T03:12:51;8.10;88.30
3067;DHT22;1544;48.834;9.194;2023-02-04T03:15:26;8.10;88.40
3067;DHT22;1544;48.834;9.194;2023-02-04T03:18:01;8.20;88.50
3067;DHT22;1544;48.834;9.194;2023-02-04T03:20:36;8.20;88.30
3067;DHT22;1544;48.834;9.194;2023-02-04T03:23:12;8.20;88.30
3067;DHT22;1544;48.834;9.194;2023-02-04T03:25:48;8.20;87.60
3067;DHT22;1544;48.834;9.194;2023-02-04T03:28:24;8.20;87.60
3067;DHT22;1544;48.834;9.194;2023-02-04T03:30:59;8.20;87.10
3067;DHT22;1544;48.834;9.194;2023-02-04T03:33:34;8.20;86.70
3067;DHT22;1544;48.834;9.194;2023-02-04T03:36:09;8.10;87.10
3067;DHT22;1544;48.834;9.194;2023-02-04T03:38:44;8.10;86.20
3067;DHT22;1544;48.834;9.194;2023-02-04T03:41:19;8.10;86.20
3067;DHT22;1544;48.834;9.194;2023-02-04T03:43:54;8.10;86.00
3067;DHT22;1544;48.834;9.194;2023-02-04T03:46:29;8.10;85.80
3067;DHT22;1544;48.834;9.194;2023-02-04T03:49:04;8.10;85.80
3067;DHT22;1544;48.834;9.194;2023-02-04T03:51:39;8.00;86.00
3067;DHT22;1544;48.834;9.194;2023-02-04T03:54:14;8.00;85.80
3067;DHT22;1544;48.834;9.194;2023-02-04T03:56:49;7.90;86.00
3067;DHT22;1544;48.834;9.194;2023-02-04T03:59:24;7.90;86.10
3067;DHT22;1544;48.834;9.194;2023-02-04T04:01:59;7.90;86.20
3067;DHT22;1544;48.834;9.194;2023-02-04T04:04:34;7.90;86.50
3067;DHT22;1544;48.834;9.194;2023-02-04T04:07:09;7.90;86.30
3067;DHT22;1544;48.834;9.194;2023-02-04T04:09:43;7.80;86.30
3067;DHT22;1544;48.834;9.194;2023-02-04T04:12:18;7.80;86.30
3067;DHT22;1544;48.834;9.194;2023-02-04T04:14:53;7.80;86.80
3067;DHT22;1544;48.834;9.194;2023-02-04T04:17:28;7.90;86.80
3067;DHT22;1544;48.834;9.194;2023-02-04T04:20:04;7.90;87.30
3067;DHT22;1544;48.834;9.194;2023-02-04T04:22:39;7.90;87.20
3067;DHT22;1544;48.834;9.194;2023-02-04T04:25:14;7.90;87.00
3067;DHT22;1544;48.834;9.194;2023-02-04T04:27:49;7.90;87.20
3067;DHT22;1544;48.834;9.194;2023-02-04T04:30:24;7.90;86.70
3067;DHT22;1544;48.834;9.194;2023-02-04T04:32:59;7.90;86.80
3067;DHT22;1544;48.834;9.194;2023-02-04T04:35:34;7.90;86.90
3067;DHT22;1544;48.834;9.194;2023-02-04T04:38:09;7.90;86.80
3067;DHT22;1544;48.834;9.194;2023-02-04T04:40:44;7.90;87.00
3067;DHT22;1544;48.834;9.194;2023-02-04T04:43:19;8.00;87.30
3067;DHT22;1544;48.834;9.194;2023-02-04T04:45:54;7.90;87.20
3067;DHT22;1544;48.834;9.194;2023-02-04T04:48:29;8.00;87.30
3067;DHT22;1544;48.834;9.194;2023-02-04T04:51:04;8.00;87.10
3067;DHT22;1544;48.834;9.194;2023-02-04T04:53:39;8.00;87.10
3067;DHT22;1544;48.834;9.194;2023-02-04T04:56:14;8.00;87.20
3067;DHT22;1544;48.834;9.194;2023-02-04T04:58:49;8.00;86.80
3067;DHT22;1544;48.834;9.194;2023-02-04T05:01:24;7.90;86.10
3067;DHT22;1544;48.834;9.194;2023-02-04T05:03:58;7.90;86.20
3067;DHT22;1544;48.834;9.194;2023-02-04T05:06:33;10.50;87.40
3067;DHT22;1544;48.834;9.194;2023-02-04T05:09:08;7.80;85.90
3067;DHT22;1544;48.834;9.194;2023-02-04T05:11:43;7.80;86.40
3067;DHT22;1544;48.834;9.194;2023-02-04T05:14:18;7.80;86.20
3067;DHT22;1544;48.834;9.194;2023-02-04T05:16:53;7.90;86.50
3067;DHT22;1544;48.834;9.194;2023-02-04T05:19:28;7.80;86.20
3067;DHT22;1544;48.834;9.194;2023-02-04T05:22:02;7.80;86.10
3067;DHT22;1544;48.834;9.194;2023-02-04T05:24:37;7.80;86.20
3067;DHT22;1544;48.834;9.194;2023-02-04T05:27:13;7.80;86.20
3067;DHT22;1544;48.834;9.194;2023-02-04T05:29:48;7.80;86.30
3067;DHT22;1544;48.834;9.194;2023-02-04T05:32:23;7.80;86.10
3067;DHT22;1544;48.834;9.194;2023-02-04T05:34:58;7.80;86.30
3067;DHT22;1544;48.834;9.194;2023-02-04T05:37:32;7.80;86.20
3067;DHT22;1544;48.834;9.194;2023-02-04T05:40:08;7.80;86.20
3067;DHT22;1544;48.834;9.194;2023-02-04T05:42:43;7.70;86.30
3067;DHT22;1544;48.834;9.194;2023-02-04T05:45:18;7.70;86.20
3067;DHT22;1544;48.834;9.194;2023-02-04T05:47:53;7.70;86.10
3067;DHT22;1544;48.834;9.194;2023-02-04T05:50:28;7.70;86.10
3067;DHT22;1544;48.834;9.194;2023-02-04T05:53:15;7.70;86.10
3067;DHT22;1544;48.834;9.194;2023-02-04T05:55:50;7.70;86.20
3067;DHT22;1544;48.834;9.194;2023-02-04T05:58:24;7.70;86.30
3067;DHT22;1544;48.834;9.194;2023-02-04T06:01:00;7.70;86.10
3067;DHT22;1544;48.834;9.194;2023-02-04T06:03:36;7.70;86.10
3067;DHT22;1544;48.834;9.194;2023-02-04T06:06:10;7.60;85.70
3067;DHT22;1544;48.834;9.194;2023-02-04T06:08:46;7.60;85.20
3067;DHT22;1544;48.834;9.194;2023-02-04T06:11:20;7.60;85.40
3067;DHT22;1544;48.834;9.194;2023-02-04T06:13:55;7.60;85.20
3067;DHT22;1544;48.834;9.194;2023-02-04T06:16:30;7.60;85.10
3067;DHT22;1544;48.834;9.194;2023-02-04T06:19:05;7.60;85.40
3067;DHT22;1544;48.834;9.194;2023-02-04T06:21:40;7.50;85.20
3067;DHT22;1544;48.834;9.194;2023-02-04T06:24:15;7.50;85.60
3067;DHT22;1544;48.834;9.194;2023-02-04T06:26:50;7.60;85.50
3067;DHT22;1544;48.834;9.194;2023-02-04T06:29:25;7.50;85.20
3067;DHT22;1544;48.834;9.194;2023-02-04T06:32:00;7.50;85.20
3067;DHT22;1544;48.834;9.194;2023-02-04T06:34:35;7.50;85.00
3067;DHT22;1544;48.834;9.194;2023-02-04T06:37:09;7.50;85.30
3067;DHT22;1544;48.834;9.194;2023-02-04T06:39:45;7.50;85.30
3067;DHT22;1544;48.834;9.194;2023-02-04T06:42:20;7.50;85.20
3067;DHT22;1544;48.834;9.194;2023-02-04T06:44:55;7.50;85.00
3067;DHT22;1544;48.834;9.194;2023-02-04T06:47:30;7.50;85.00
3067;DHT22;1544;48.834;9.194;2023-02-04T06:50:05;8.80;86.00
3067;DHT22;1544;48.834;9.194;2023-02-04T06:52:40;7.50;85.10
3067;DHT22;1544;48.834;9.194;2023-02-04T06:55:16;7.50;84.90
3067;DHT22;1544;48.834;9.194;2023-02-04T06:57:51;7.50;84.80
3067;DHT22;1544;48.834;9.194;2023-02-04T07:00:26;7.50;84.80
3067;DHT22;1544;48.834;9.194;2023-02-04T07:03:01;7.50;85.40
3067;DHT22;1544;48.834;9.194;2023-02-04T07:05:36;7.50;85.30
3067;DHT22;1544;48.834;9.194;2023-02-04T07:08:11;7.60;85.20
3067;DHT22;1544;48.834;9.194;2023-02-04T07:10:46;7.60;85.10
3067;DHT22;1544;48.834;9.194;2023-02-04T07:13:21;7.60;85.30
3067;DHT22;1544;48.834;9.194;2023-02-04T07:15:56;7.60;85.00
3067;DHT22;1544;48.834;9.194;2023-02-04T07:18:31;7.50;82.80
3067;DHT22;1544;48.834;9.194;2023-02-04T07:21:06;7.60;83.30
3067;DHT22;1544;48.834;9.194;2023-02-04T07:23:41;7.60;83.00
3067;DHT22;1544;48.834;9.194;2023-02-04T07:26:16;7.60;83.20
3067;DHT22;1544;48.834;9.194;2023-02-04T07:28:51;7.60;82.90
3067;DHT22;1544;48.834;9.194;2023-02-04T07:31:26;7.60;83.10
3067;DHT22;1544;48.834;9.194;2023-02-04T07:34:01;7.70;83.30
3067;DHT22;1544;48.834;9.194;2023-02-04T07:36:36;7.70;82.60
3067;DHT22;1544;48.834;9.194;2023-02-04T07:39:11;7.70;81.30
3067;DHT22;1544;48.834;9.194;2023-02-04T07:41:46;7.70;81.50
3067;DHT22;1544;48.834;9.194;2023-02-04T07:44:27;7.70;81.30
3067;DHT22;1544;48.834;9.194;2023-02-04T07:47:03;7.70;81.50
3067;DHT22;1544;48.834;9.194;2023-02-04T07:49:38;7.70;81.40
3067;DHT22;1544;48.834;9.194;2023-02-04T07:52:13;7.70;81.00
3067;DHT22;1544;48.834;9.194;2023-02-04T07:54:48;7.70;80.60
3067;DHT22;1544;48.834;9.194;2023-02-04T07:57:23;7.70;80.10
3067;DHT22;1544;48.834;9.194;2023-02-04T07:59:58;7.70;79.00
3067;DHT22;1544;48.834;9.194;2023-02-04T08:02:33;7.70;77.80
3067;DHT22;1544;48.834;9.194;2023-02-04T08:05:08;7.60;76.40
3067;DHT22;1544;48.834;9.194;2023-02-04T08:07:43;7.60;75.90
3067;DHT22;1544;48.834;9.194;2023-02-04T08:10:19;7.60;76.40
3067;DHT22;1544;48.834;9.194;2023-02-04T08:12:54;7.70;77.40
3067;DHT22;1544;48.834;9.194;2023-02-04T08:15:29;7.80;78.30
3067;DHT22;1544;48.834;9.194;2023-02-04T08:18:04;7.80;78.70
3067;DHT22;1544;48.834;9.194;2023-02-04T08:20:39;7.80;78.40
3067;DHT22;1544;48.834;9.194;2023-02-04T08:23:14;7.80;77.90
3067;DHT22;1544;48.834;9.194;2023-02-04T08:25:49;7.80;78.00
3067;DHT22;1544;48.834;9.194;2023-02-04T08:28:24;7.80;78.20
3067;DHT22;1544;48.834;9.194;2023-02-04T08:30:59;7.80;78.60
3067;DHT22;1544;48.834;9.194;2023-02-04T08:33:34;7.80;78.20
3067;DHT22;1544;48.834;9.194;2023-02-04T08:36:09;7.80;77.60
3067;DHT22;1544;48.834;9.194;2023-02-04T08:38:44;7.80;77.90
3067;DHT22;1544;48.834;9.194;2023-02-04T08:41:19;7.80;78.60
3067;DHT22;1544;48.834;9.194;2023-02-04T08:43:54;7.80;78.90
3067;DHT22;1544;48.834;9.194;2023-02-04T08:46:29;7.70;78.30
3067;DHT22;1544;48.834;9.194;2023-02-04T08:49:04;7.70;78.90
3067;DHT22;1544;48.834;9.194;2023-02-04T08:51:39;7.70;79.20
3067;DHT22;1544;48.834;9.194;2023-02-04T08:54:14;7.70;80.00
3067;DHT22;1544;48.834;9.194;2023-02-04T08:56:48;7.70;79.40
3067;DHT22;1544;48.834;9.194;2023-02-04T08:59:23;7.70;79.90
3067;DHT22;1544;48.834;9.194;2023-02-04T09:01:59;7.70;80.00
3067;DHT22;1544;48.834;9.194;2023-02-04T09:04:34;7.70;80.50
3067;DHT22;1544;48.834;9.194;2023-02-04T09:07:09;7.70;80.30
3067;DHT22;1544;48.834;9.194;2023-02-04T09:09:44;7.70;80.10
3067;DHT22;1544;48.834;9.194;2023-02-04T09:12:19;7.70;80.80
3067;DHT22;1544;48.834;9.194;2023-02-04T09:14:54;7.70;80.90
3067;DHT22;1544;48.834;9.194;2023-02-04T09:17:29;7.70;80.40
3067;DHT22;1544;48.834;9.194;2023-02-04T09:20:04;7.70;80.40
3067;DHT22;1544;48.834;9.194;2023-02-04T09:22:40;7.60;80.00
3067;DHT22;1544;48.834;9.194;2023-02-04T09:25:14;7.60;79.90
3067;DHT22;1544;48.834;9.194;2023-02-04T09:27:49;7.60;79.60
3067;DHT22;1544;48.834;9.194;2023-02-04T09:30:24;7.60;80.30
3067;DHT22;1544;48.834;9.194;2023-02-04T09:32:59;7.70;80.50
3067;DHT22;1544;48.834;9.194;2023-02-04T09:35:35;7.70;79.00
3067;DHT22;1544;48.834;9.194;2023-02-04T09:38:09;7.70;79.20
3067;DHT22;1544;48.834;9.194;2023-02-04T09:40:48;7.70;78.70
3067;DHT22;1544;48.834;9.194;2023-02-04T09:43:29;7.80;79.10
3067;DHT22;1544;48.834;9.194;2023-02-04T09:46:08;8.10;76.40
3067;DHT22;1544;48.834;9.194;2023-02-04T09:48:57;8.20;73.60
3067;DHT22;1544;48.834;9.194;2023-02-04T09:51:33;8.40;71.90
3067;DHT22;1544;48.834;9.194;2023-02-04T09:54:27;8.50;67.40
3067;DHT22;1544;48.834;9.194;2023-02-04T09:57:11;8.80;65.40
3067;DHT22;1544;48.834;9.194;2023-02-04T09:59:49;9.00;62.30
3067;DHT22;1544;48.834;9.194;2023-02-04T10:02:25;9.20;59.60
3067;DHT22;1544;48.834;9.194;2023-02-04T10:05:00;9.40;56.20
3067;DHT22;1544;48.834;9.194;2023-02-04T10:07:35;9.50;51.40
3067;DHT22;1544;48.834;9.194;2023-02-04T10:10:17;9.60;51.30
3067;DHT22;1544;48.834;9.194;2023-02-04T10:12:58;9.80;51.80
3067;DHT22;1544;48.834;9.194;2023-02-04T10:15:34;10.10;47.80
3067;DHT22;1544;48.834;9.194;2023-02-04T10:18:11;10.10;48.20
3067;DHT22;1544;48.834;9.194;2023-02-04T10:21:07;10.30;47.70
3067;DHT22;1544;48.834;9.194;2023-02-04T10:23:53;10.50;46.70
3067;DHT22;1544;48.834;9.194;2023-02-04T10:26:31;10.60;45.30
3067;DHT22;1544;48.834;9.194;2023-02-04T10:29:17;10.70;43.80
3067;DHT22;1544;48.834;9.194;2023-02-04T10:31:53;10.80;42.30
3067;DHT22;1544;48.834;9.194;2023-02-04T10:34:42;10.80;41.10
3067;DHT22;1544;48.834;9.194;2023-02-04T10:37:21;10.80;40.90
3067;DHT22;1544;48.834;9.194;2023-02-04T10:39:56;10.80;40.20
3067;DHT22;1544;48.834;9.194;2023-02-04T10:42:31;12.30;41.90
3067;DHT22;1544;48.834;9.194;2023-02-04T10:45:22;10.90;41.30
3067;DHT22;1544;48.834;9.194;2023-02-04T10:48:01;11.00;41.50
3067;DHT22;1544;48.834;9.194;2023-02-04T10:50:37;11.10;41.60
3067;DHT22;1544;48.834;9.194;2023-02-04T10:53:15;11.40;40.90
3067;DHT22;1544;48.834;9.194;2023-02-04T10:56:15;11.60;38.40
3067;DHT22;1544;48.834;9.194;2023-02-04T10:58:52;11.80;37.00
3067;DHT22;1544;48.834;9.194;2023-02-04T11:01:28;11.90;37.40
3067;DHT22;1544;48.834;9.194;2023-02-04T11:04:09;12.00;37.50
3067;DHT22;1544;48.834;9.194;2023-02-04T11:06:44;12.00;36.90
3067;DHT22;1544;48.834;9.194;2023-02-04T11:09:19;12.00;36.60
3067;DHT22;1544;48.834;9.194;2023-02-04T11:11:57;11.90;36.40
3067;DHT22;1544;48.834;9.194;2023-02-04T11:14:31;11.90;36.80
3067;DHT22;1544;48.834;9.194;2023-02-04T11:17:07;12.00;36.30
3067;DHT22;1544;48.834;9.194;2023-02-04T11:19:53;11.90;35.50
3067;DHT22;1544;48.834;9.194;2023-02-04T11:22:45;11.90;34.40
3067;DHT22;1544;48.834;9.194;2023-02-04T11:25:35;11.80;34.10
3067;DHT22;1544;48.834;9.194;2023-02-04T11:28:38;11.80;34.00
3067;DHT22;1544;48.834;9.194;2023-02-04T11:39:37;12.20;34.60
3067;DHT22;1544;48.834;9.194;2023-02-04T11:45:20;12.10;33.20
3067;DHT22;1544;48.834;9.194;2023-02-04T11:48:18;11.90;33.60
3067;DHT22;1544;48.834;9.194;2023-02-04T11:50:59;11.80;34.10
3067;DHT22;1544;48.834;9.194;2023-02-04T11:53:34;11.80;34.30
3067;DHT22;1544;48.834;9.194;2023-02-04T11:56:17;11.80;34.30
3067;DHT22;1544;48.834;9.194;2023-02-04T11:58:57;11.90;33.90
3067;DHT22;1544;48.834;9.194;2023-02-04T12:01:33;12.20;34.60
3067;DHT22;1544;48.834;9.194;2023-02-04T12:04:22;12.50;34.10
3067;DHT22;1544;48.834;9.194;2023-02-04T12:07:02;12.80;34.60
3067;DHT22;1544;48.834;9.194;2023-02-04T12:09:46;13.00;33.90
3067;DHT22;1544;48.834;9.194;2023-02-04T12:12:41;13.10;32.90
3067;DHT22;1544;48.834;9.194;2023-02-04T12:15:23;13.10;32.70
3067;DHT22;1544;48.834;9.194;2023-02-04T12:18:05;13.10;32.30
3067;DHT22;1544;48.834;9.194;2023-02-04T12:20:41;13.10;32.30
3067;DHT22;1544;48.834;9.194;2023-02-04T12:23:16;13.10;31.10
3067;DHT22;1544;48.834;9.194;2023-02-04T12:25:52;13.10;31.40
3067;DHT22;1544;48.834;9.194;2023-02-04T12:28:26;13.10;31.90
3067;DHT22;1544;48.834;9.194;2023-02-04T12:31:02;13.20;32.20
3067;DHT22;1544;48.834;9.194;2023-02-04T12:33:37;13.20;31.10
3067;DHT22;1544;48.834;9.194;2023-02-04T12:36:12;13.20;31.20
3067;DHT22;1544;48.834;9.194;2023-02-04T12:38:47;13.20;30.70
3067;DHT22;1544;48.834;9.194;2023-02-04T12:41:22;13.20;31.20
3067;DHT22;1544;48.834;9.194;2023-02-04T12:43:57;13.10;30.70
3067;DHT22;1544;48.834;9.194;2023-02-04T12:46:32;13.00;31.20
3067;DHT22;1544;48.834;9.194;2023-02-04T12:49:07;12.90;31.30
3067;DHT22;1544;48.834;9.194;2023-02-04T12:51:43;12.70;30.40
3067;DHT22;1544;48.834;9.194;2023-02-04T12:54:18;12.50;30.60
3067;DHT22;1544;48.834;9.194;2023-02-04T12:56:53;12.40;30.70
3067;DHT22;1544;48.834;9.194;2023-02-04T12:59:31;12.00;30.20
3067;DHT22;1544;48.834;9.194;2023-02-04T13:02:07;11.90;30.90
3067;DHT22;1544;48.834;9.194;2023-02-04T13:04:45;11.80;30.70
3067;DHT22;1544;48.834;9.194;2023-02-04T13:07:20;11.90;31.50
3067;DHT22;1544;48.834;9.194;2023-02-04T13:09:56;11.90;31.60
3067;DHT22;1544;48.834;9.194;2023-02-04T13:12:31;12.00;31.50
3067;DHT22;1544;48.834;9.194;2023-02-04T13:15:06;12.10;31.80
3067;DHT22;1544;48.834;9.194;2023-02-04T13:17:41;12.20;31.80
3067;DHT22;1544;48.834;9.194;2023-02-04T13:20:17;12.30;32.40
3067;DHT22;1544;48.834;9.194;2023-02-04T13:22:52;12.40;32.50
3067;DHT22;1544;48.834;9.194;2023-02-04T13:25:26;12.30;31.60
3067;DHT22;1544;48.834;9.194;2023-02-04T13:28:01;12.40;32.30
3067;DHT22;1544;48.834;9.194;2023-02-04T13:30:36;12.40;32.30
3067;DHT22;1544;48.834;9.194;2023-02-04T13:33:12;12.30;32.00
3067;DHT22;1544;48.834;9.194;2023-02-04T13:35:47;12.30;32.10
3067;DHT22;1544;48.834;9.194;2023-02-04T13:38:22;12.20;32.30
3067;DHT22;1544;48.834;9.194;2023-02-04T13:40:57;12.00;32.20
3067;DHT22;1544;48.834;9.194;2023-02-04T13:43:32;12.00;32.80
3067;DHT22;1544;48.834;9.194;2023-02-04T13:46:06;11.90;32.30
3067;DHT22;1544;48.834;9.194;2023-02-04T13:48:41;12.10;32.30
3067;DHT22;1544;48.834;9.194;2023-02-04T13:51:16;12.30;32.90
3067;DHT22;1544;48.834;9.194;2023-02-04T13:53:52;12.30;32.60
3067;DHT22;1544;48.834;9.194;2023-02-04T13:56:27;12.30;33.00
3067;DHT22;1544;48.834;9.194;2023-02-04T13:59:02;12.30;32.70
3067;DHT22;1544;48.834;9.194;2023-02-04T14:01:37;12.20;32.90
3067;DHT22;1544;48.834;9.194;2023-02-04T14:04:12;12.10;31.20
3067;DHT22;1544;48.834;9.194;2023-02-04T14:06:47;12.00;31.10
3067;DHT22;1544;48.834;9.194;2023-02-04T14:09:23;11.90;31.10
3067;DHT22;1544;48.834;9.194;2023-02-04T14:12:09;11.90;31.70
3067;DHT22;1544;48.834;9.194;2023-02-04T14:14:50;11.80;32.10
3067;DHT22;1544;48.834;9.194;2023-02-04T14:17:37;12.00;32.90
3067;DHT22;1544;48.834;9.194;2023-02-04T14:20:25;12.30;32.50
3067;DHT22;1544;48.834;9.194;2023-02-04T14:23:03;12.40;30.60
3067;DHT22;1544;48.834;9.194;2023-02-04T14:25:48;12.50;30.60
3067;DHT22;1544;48.834;9.194;2023-02-04T14:28:31;12.70;31.20
3067;DHT22;1544;48.834;9.194;2023-02-04T14:31:11;12.80;30.20
3067;DHT22;1544;48.834;9.194;2023-02-04T14:33:54;13.10;31.20
3067;DHT22;1544;48.834;9.194;2023-02-04T14:36:35;13.30;30.40
3067;DHT22;1544;48.834;9.194;2023-02-04T14:39:26;13.40;28.70
3067;DHT22;1544;48.834;9.194;2023-02-04T14:42:05;13.40;28.10
3067;DHT22;1544;48.834;9.194;2023-02-04T14:44:51;13.50;28.70
3067;DHT22;1544;48.834;9.194;2023-02-04T14:47:38;13.60;28.90
3067;DHT22;1544;48.834;9.194;2023-02-04T14:50:16;13.70;28.90
3067;DHT22;1544;48.834;9.194;2023-02-04T14:53:00;13.80;29.50
3067;DHT22;1544;48.834;9.194;2023-02-04T14:55:44;13.90;28.80
3067;DHT22;1544;48.834;9.194;2023-02-04T14:58:24;13.90;29.20
3067;DHT22;1544;48.834;9.194;2023-02-04T15:01:07;13.90;27.80
3067;DHT22;1544;48.834;9.194;2023-02-04T15:03:48;13.80;27.60
3067;DHT22;1544;48.834;9.194;2023-02-04T15:06:42;13.80;28.70
3067;DHT22;1544;48.834;9.194;2023-02-04T15:09:20;13.90;29.30
3067;DHT22;1544;48.834;9.194;2023-02-04T15:12:05;14.00;29.20
3067;DHT22;1544;48.834;9.194;2023-02-04T15:14:45;14.10;30.00
3067;DHT22;1544;48.834;9.194;2023-02-04T15:17:34;14.20;30.90
3067;DHT22;1544;48.834;9.194;2023-02-04T15:20:32;14.10;29.00
3067;DHT22;1544;48.834;9.194;2023-02-04T15:23:14;13.90;28.80
3067;DHT22;1544;48.834;9.194;2023-02-04T15:25:54;13.60;28.40
3067;DHT22;1544;48.834;9.194;2023-02-04T15:28:43;13.40;29.60
3067;DHT22;1544;48.834;9.194;2023-02-04T15:31:29;15.10;30.90
3067;DHT22;1544;48.834;9.194;2023-02-04T15:34:16;13.10;30.00
3067;DHT22;1544;48.834;9.194;2023-02-04T15:36:59;12.90;30.50
3067;DHT22;1544;48.834;9.194;2023-02-04T15:39:38;12.80;30.10
3067;DHT22;1544;48.834;9.194;2023-02-04T15:42:18;12.60;30.00
3067;DHT22;1544;48.834;9.194;2023-02-04T15:44:58;12.40;30.20
3067;DHT22;1544;48.834;9.194;2023-02-04T15:47:39;12.20;29.60
3067;DHT22;1544;48.834;9.194;2023-02-04T15:50:19;12.10;29.60
3067;DHT22;1544;48.834;9.194;2023-02-04T15:53:04;11.90;30.00
3067;DHT22;1544;48.834;9.194;2023-02-04T15:55:45;11.70;30.30
3067;DHT22;1544;48.834;9.194;2023-02-04T15:58:26;11.60;30.20
3067;DHT22;1544;48.834;9.194;2023-02-04T16:01:06;11.40;30.30
3067;DHT22;1544;48.834;9.194;2023-02-04T16:03:50;11.20;30.80
3067;DHT22;1544;48.834;9.194;2023-02-04T16:06:35;11.10;30.20
3067;DHT22;1544;48.834;9.194;2023-02-04T16:09:24;10.90;31.00
3067;DHT22;1544;48.834;9.194;2023-02-04T16:12:10;10.80;30.90
3067;DHT22;1544;48.834;9.194;2023-02-04T16:14:51;10.70;31.10
3067;DHT22;1544;48.834;9.194;2023-02-04T16:17:35;10.50;31.50
3067;DHT22;1544;48.834;9.194;2023-02-04T16:20:17;10.40;31.60
3067;DHT22;1544;48.834;9.194;2023-02-04T16:22:57;10.30;31.90
3067;DHT22;1544;48.834;9.194;2023-02-04T16:25:44;10.20;32.40
3067;DHT22;1544;48.834;9.194;2023-02-04T16:28:29;10.10;32.50
3067;DHT22;1544;48.834;9.194;2023-02-04T16:31:08;9.90;33.40
3067;DHT22;1544;48.834;9.194;2023-02-04T16:33:53;9.80;33.40
3067;DHT22;1544;48.834;9.194;2023-02-04T16:36:34;9.70;33.30
3067;DHT22;1544;48.834;9.194;2023-02-04T16:39:27;9.60;33.60
3067;DHT22;1544;48.834;9.194;2023-02-04T16:42:05;9.40;33.50
3067;DHT22;1544;48.834;9.194;2023-02-04T16:44:44;9.40;33.50
3067;DHT22;1544;48.834;9.194;2023-02-04T16:47:21;9.30;33.90
3067;DHT22;1544;48.834;9.194;2023-02-04T16:49:59;9.20;34.20
3067;DHT22;1544;48.834;9.194;2023-02-04T16:52:39;9.10;34.30
3067;DHT22;1544;48.834;9.194;2023-02-04T16:55:25;9.10;34.50
3067;DHT22;1544;48.834;9.194;2023-02-04T16:58:11;9.00;34.60
3067;DHT22;1544;48.834;9.194;2023-02-04T17:00:56;8.90;34.30
3067;DHT22;1544;48.834;9.194;2023-02-04T17:03:36;8.80;34.60
3067;DHT22;1544;48.834;9.194;2023-02-04T17:06:30;8.70;34.80
3067;DHT22;1544;48.834;9.194;2023-02-04T17:09:13;8.60;34.90
3067;DHT22;1544;48.834;9.194;2023-02-04T17:11:57;8.50;35.20
3067;DHT22;1544;48.834;9.194;2023-02-04T17:14:48;8.40;35.00
3067;DHT22;1544;48.834;9.194;2023-02-04T17:17:37;8.30;35.20
3067;DHT22;1544;48.834;9.194;2023-02-04T17:20:18;8.20;35.10
3067;DHT22;1544;48.834;9.194;2023-02-04T17:23:01;8.10;34.90
3067;DHT22;1544;48.834;9.194;2023-02-04T17:25:49;8.00;34.90
3067;DHT22;1544;48.834;9.194;2023-02-04T17:28:32;7.90;35.00
3067;DHT22;1544;48.834;9.194;2023-02-04T17:31:21;7.80;35.10
3067;DHT22;1544;48.834;9.194;2023-02-04T17:34:03;7.70;35.10
3067;DHT22;1544;48.834;9.194;2023-02-04T17:36:57;7.60;35.00